Time,TemperatureF,DewpointF,PressureIn,WindDirection,WindDirectionDegrees,WindSpeedMPH,WindSpeedGustMPH,Humidity,HourlyPrecipIn,Conditions,Clouds,dailyrainin,SoftwareType,DateUTC
2013-03-29 00:03:00,21.9,10.9,30.20,SW,234,0.0,0.0,62,0.00,CLR,,0.00,WeatherDisplay:10.37,2013-03-29 05:03:00,
2013-03-29 00:08:00,21.7,10.7,30.20,SW,234,0.0,0.0,62,0.00,CLR,,0.00,WeatherDisplay:10.37,2013-03-29 05:08:00,
2013-03-29 00:13:00,21.7,11.1,30.20,SW,234,0.0,0.0,63,0.00,CLR,,0.00,WeatherDisplay:10.37,2013-03-29 05:13:00,
2013-03-29 00:19:00,21.6,10.9,30.20,SW,234,0.0,0.0,63,0.00,CLR,,0.00,WeatherDisplay:10.37,2013-03-29 05:19:00,
2013-03-29 00:24:00,21.4,10.7,30.20,SW,234,0.0,0.0,63,0.00,CLR,,0.00,WeatherDisplay:10.37,2013-03-29 05:24:00,
2013-03-29 00:29:00,21.2,10.6,30.20,SW,234,0.0,0.0,63,0.00,CLR,,0.00,WeatherDisplay:10.37,2013-03-29 05:29:00,
2013-03-29 00:34:00,21.2,10.6,30.20,SW,234,0.0,0.0,63,0.00,CLR,,0.00,WeatherDisplay:10.37,2013-03-29 05:34:00,
2013-03-29 00:40:00,21.0,10.4,30.20,SW,234,0.0,0.0,63,0.00,CLR,,0.00,WeatherDisplay:10.37,2013-03-29 05:40:00,
2013-03-29 00:45:00,21.0,10.7,30.20,SW,234,0.0,0.0,64,0.00,CLR,,0.00,WeatherDisplay:10.37,2013-03-29 05:45:00,
2013-03-29 00:50:00,21.0,10.7,30.20,SW,234,0.0,0.0,64,0.00,CLR,,0.00,WeatherDisplay:10.37,2013-03-29 05:50:00,
2013-03-29 00:55:00,20.8,10.6,30.20,SW,234,0.0,0.0,64,0.00,CLR,,0.00,WeatherDisplay:10.37,2013-03-29 05:55:00,
2013-03-29 01:00:00,20.8,10.6,30.20,SW,234,0.0,0.0,64,0.00,CLR,,0.00,WeatherDisplay:10.37,2013-03-29 06:00:00,
2013-03-29 01:05:00,20.8,10.6,30.20,SW,234,0.0,0.0,64,0.00,CLR,,0.00,WeatherDisplay:10.37,2013-03-29 06:05:00,
2013-03-29 01:10:00,20.7,10.4,30.20,SW,234,0.0,0.0,64,0.00,CLR,,0.00,WeatherDisplay:10.37,2013-03-29 06:10:00,
2013-03-29 01:16:00,20.7,10.4,30.20,SW,234,0.0,0.0,64,0.00,CLR,,0.00,WeatherDisplay:10.37,2013-03-29 06:16:00,
2013-03-29 01:21:00,20.5,10.6,30.20,SW,234,0.0,0.0,65,0.00,CLR,,0.00,WeatherDisplay:10.37,2013-03-29 06:21:00,
2013-03-29 01:26:00,20.5,10.6,30.20,SW,234,0.0,0.0,65,0.00,CLR,,0.00,WeatherDisplay:10.37,2013-03-29 06:26:00,
2013-03-29 01:31:00,20.3,10.4,30.20,SW,234,0.0,0.0,65,0.00,CLR,,0.00,WeatherDisplay:10.37,2013-03-29 06:31:00,
2013-03-29 01:36:00,20.3,10.4,30.20,East,79,3.5,3.5,65,0.00,CLR,,0.00,WeatherDisplay:10.37,2013-03-29 06:36:00,
2013-03-29 01:41:00,20.1,10.2,30.20,ENE,76,3.5,3.5,65,0.00,CLR,,0.00,WeatherDisplay:10.37,2013-03-29 06:41:00,
2013-03-29 01:46:00,20.1,10.2,30.20,ENE,73,0.0,0.0,65,0.00,CLR,,0.00,WeatherDisplay:10.37,2013-03-29 06:46:00,
2013-03-29 01:52:00,20.1,10.2,30.20,ENE,73,0.0,0.0,65,0.00,CLR,,0.00,WeatherDisplay:10.37,2013-03-29 06:52:00,
2013-03-29 01:57:00,20.1,10.2,30.20,ENE,73,0.0,0.0,65,0.00,CLR,,0.00,WeatherDisplay:10.37,2013-03-29 06:57:00,
2013-03-29 02:02:00,19.9,10.1,30.20,ENE,73,0.0,0.0,65,0.00,CLR,,0.00,WeatherDisplay:10.37,2013-03-29 07:02:00,
2013-03-29 02:07:00,19.8,9.9,30.20,ENE,73,0.0,0.0,65,0.00,CLR,,0.00,WeatherDisplay:10.37,2013-03-29 07:07:00,
2013-03-29 02:12:00,19.6,9.7,30.20,ENE,73,0.0,0.0,65,0.00,CLR,,0.00,WeatherDisplay:10.37,2013-03-29 07:12:00,
2013-03-29 02:17:00,19.4,9.9,30.20,ENE,73,0.0,0.0,66,0.00,CLR,,0.00,WeatherDisplay:10.37,2013-03-29 07:17:00,
2013-03-29 02:22:00,19.4,9.9,30.20,ENE,73,0.0,0.0,66,0.00,CLR,,0.00,WeatherDisplay:10.37,2013-03-29 07:22:00,
2013-03-29 02:28:00,19.2,9.7,30.20,ENE,73,0.0,0.0,66,0.00,CLR,,0.00,WeatherDisplay:10.37,2013-03-29 07:28:00,
2013-03-29 02:33:00,19.0,9.5,30.20,ENE,73,0.0,0.0,66,0.00,CLR,,0.00,WeatherDisplay:10.37,2013-03-29 07:33:00,
2013-03-29 02:38:00,18.9,9.4,30.20,ENE,73,0.0,0.0,66,0.00,CLR,,0.00,WeatherDisplay:10.37,2013-03-29 07:38:00,
2013-03-29 02:43:00,18.7,9.2,30.20,ENE,73,0.0,0.0,66,0.00,CLR,,0.00,WeatherDisplay:10.37,2013-03-29 07:43:00,
2013-03-29 02:48:00,18.5,9.0,30.20,ENE,73,0.0,0.0,66,0.00,CLR,,0.00,WeatherDisplay:10.37,2013-03-29 07:48:00,
2013-03-29 02:54:00,18.3,8.9,30.20,ENE,73,0.0,0.0,66,0.00,CLR,,0.00,WeatherDisplay:10.37,2013-03-29 07:54:00,
2013-03-29 02:59:00,18.3,8.9,30.20,ENE,73,0.0,0.0,66,0.00,CLR,,0.00,WeatherDisplay:10.37,2013-03-29 07:59:00,
2013-03-29 03:04:00,18.1,8.7,30.20,ENE,73,0.0,0.0,66,0.00,CLR,,0.00,WeatherDisplay:10.37,2013-03-29 08:04:00,
2013-03-29 03:09:00,18.1,8.7,30.20,ENE,73,0.0,0.0,66,0.00,CLR,,0.00,WeatherDisplay:10.37,2013-03-29 08:09:00,
2013-03-29 03:15:00,18.1,8.7,30.20,ENE,73,0.0,0.0,66,0.00,CLR,,0.00,WeatherDisplay:10.37,2013-03-29 08:15:00,
2013-03-29 03:20:00,18.0,8.8,30.20,ENE,73,0.0,0.0,67,0.00,CLR,,0.00,WeatherDisplay:10.37,2013-03-29 08:20:00,
2013-03-29 03:25:00,18.0,8.8,30.20,ENE,73,0.0,0.0,67,0.00,CLR,,0.00,WeatherDisplay:10.37,2013-03-29 08:25:00,
2013-03-29 03:30:00,17.8,8.7,30.20,ENE,73,0.0,0.0,67,0.00,CLR,,0.00,WeatherDisplay:10.37,2013-03-29 08:30:00,
2013-03-29 03:35:00,17.6,8.5,30.20,ENE,73,0.0,0.0,67,0.00,CLR,,0.00,WeatherDisplay:10.37,2013-03-29 08:35:00,
2013-03-29 03:40:00,17.6,8.5,30.20,ENE,73,0.0,0.0,67,0.00,CLR,,0.00,WeatherDisplay:10.37,2013-03-29 08:40:00,
2013-03-29 03:45:00,17.4,8.3,30.20,ENE,73,0.0,0.0,67,0.00,CLR,,0.00,WeatherDisplay:10.37,2013-03-29 08:45:00,
2013-03-29 03:50:00,17.4,8.3,30.20,ENE,73,0.0,0.0,67,0.00,CLR,,0.00,WeatherDisplay:10.37,2013-03-29 08:50:00,
2013-03-29 03:55:00,17.2,8.5,30.20,ENE,73,0.0,0.0,68,0.00,CLR,,0.00,WeatherDisplay:10.37,2013-03-29 08:55:00,
2013-03-29 04:00:00,17.2,8.5,30.20,ENE,73,0.0,0.0,68,0.00,CLR,,0.00,WeatherDisplay:10.37,2013-03-29 09:00:00,
2013-03-29 04:05:00,17.1,8.3,30.20,ENE,73,0.0,0.0,68,0.00,CLR,,0.00,WeatherDisplay:10.37,2013-03-29 09:05:00,
2013-03-29 04:11:00,17.1,8.3,30.20,ENE,73,0.0,0.0,68,0.00,CLR,,0.00,WeatherDisplay:10.37,2013-03-29 09:11:00,
2013-03-29 04:16:00,17.1,8.3,30.20,ENE,73,0.0,0.0,68,0.00,CLR,,0.00,WeatherDisplay:10.37,2013-03-29 09:16:00,
2013-03-29 04:21:00,16.9,8.1,30.20,ENE,73,0.0,0.0,68,0.00,CLR,,0.00,WeatherDisplay:10.37,2013-03-29 09:21:00,
2013-03-29 04:26:00,16.7,8.0,30.20,ENE,73,0.0,0.0,68,0.00,CLR,,0.00,WeatherDisplay:10.37,2013-03-29 09:26:00,
2013-03-29 04:31:00,16.5,7.8,30.20,ENE,73,0.0,0.0,68,0.00,CLR,,0.00,WeatherDisplay:10.37,2013-03-29 09:31:00,
2013-03-29 04:37:00,16.5,7.8,30.20,ENE,73,0.0,0.0,68,0.00,CLR,,0.00,WeatherDisplay:10.37,2013-03-29 09:37:00,
2013-03-29 04:42:00,16.3,7.6,30.20,ENE,73,0.0,0.0,68,0.00,CLR,,0.00,WeatherDisplay:10.37,2013-03-29 09:42:00,
2013-03-29 04:47:00,16.2,7.4,30.20,ENE,74,0.0,0.0,68,0.00,CLR,,0.00,WeatherDisplay:10.37,2013-03-29 09:47:00,
2013-03-29 04:52:00,16.2,7.4,30.20,ENE,73,0.0,0.0,68,0.00,CLR,,0.00,WeatherDisplay:10.37,2013-03-29 09:52:00,
2013-03-29 04:58:00,16.2,7.4,30.20,ENE,73,0.0,0.0,68,0.00,CLR,,0.00,WeatherDisplay:10.37,2013-03-29 09:58:00,
2013-03-29 05:03:00,16.2,7.4,30.20,ENE,73,0.0,0.0,68,0.00,CLR,,0.00,WeatherDisplay:10.37,2013-03-29 10:03:00,
2013-03-29 05:08:00,16.0,7.6,30.20,ENE,73,0.0,0.0,69,0.00,CLR,,0.00,WeatherDisplay:10.37,2013-03-29 10:08:00,
2013-03-29 05:13:00,16.0,7.6,30.20,ENE,73,0.0,0.0,69,0.00,CLR,,0.00,WeatherDisplay:10.37,2013-03-29 10:13:00,
2013-03-29 05:18:00,15.8,7.4,30.20,ENE,73,0.0,0.0,69,0.00,CLR,,0.00,WeatherDisplay:10.37,2013-03-29 10:18:00,
2013-03-29 05:23:00,15.8,7.4,30.20,ENE,73,0.0,0.0,69,0.00,CLR,,0.00,WeatherDisplay:10.37,2013-03-29 10:23:00,
2013-03-29 05:28:00,15.4,7.1,30.20,ENE,73,0.0,0.0,69,0.00,CLR,,0.00,WeatherDisplay:10.37,2013-03-29 10:28:00,
2013-03-29 05:33:00,15.4,7.1,30.20,ENE,73,0.0,0.0,69,0.00,CLR,,0.00,WeatherDisplay:10.37,2013-03-29 10:33:00,
2013-03-29 05:38:00,15.3,6.9,30.20,ENE,73,0.0,0.0,69,0.00,CLR,,0.00,WeatherDisplay:10.37,2013-03-29 10:38:00,
2013-03-29 05:43:00,15.3,6.9,30.20,ENE,73,0.0,0.0,69,0.00,CLR,,0.00,WeatherDisplay:10.37,2013-03-29 10:43:00,
2013-03-29 05:49:00,15.3,6.9,30.20,ENE,73,0.0,0.0,69,0.00,CLR,,0.00,WeatherDisplay:10.37,2013-03-29 10:49:00,
2013-03-29 05:54:00,15.3,6.9,30.20,ENE,73,0.0,0.0,69,0.00,CLR,,0.00,WeatherDisplay:10.37,2013-03-29 10:54:00,
2013-03-29 05:59:00,15.3,6.9,30.20,ENE,73,0.0,0.0,69,0.00,CLR,,0.00,WeatherDisplay:10.37,2013-03-29 10:59:00,
2013-03-29 06:04:00,15.1,7.1,30.20,ENE,73,0.0,0.0,70,0.00,CLR,,0.00,WeatherDisplay:10.37,2013-03-29 11:04:00,
2013-03-29 06:09:00,15.1,7.1,30.20,ENE,73,0.0,0.0,70,0.00,CLR,,0.00,WeatherDisplay:10.37,2013-03-29 11:09:00,
2013-03-29 06:15:00,15.1,7.1,30.20,ENE,73,0.0,0.0,70,0.00,CLR,,0.00,WeatherDisplay:10.37,2013-03-29 11:15:00,
2013-03-29 06:20:00,15.1,7.1,30.20,ENE,73,0.0,0.0,70,0.00,CLR,,0.00,WeatherDisplay:10.37,2013-03-29 11:20:00,
2013-03-29 06:25:00,15.1,7.1,30.20,ENE,73,0.0,0.0,70,0.00,CLR,,0.00,WeatherDisplay:10.37,2013-03-29 11:25:00,
2013-03-29 06:30:00,14.9,6.9,30.20,ENE,73,0.0,0.0,70,0.00,CLR,,0.00,WeatherDisplay:10.37,2013-03-29 11:30:00,
2013-03-29 06:35:00,14.9,6.9,30.20,ENE,73,0.0,0.0,70,0.00,CLR,,0.00,WeatherDisplay:10.37,2013-03-29 11:35:00,
2013-03-29 06:41:00,14.7,6.7,30.20,ENE,73,0.0,0.0,70,0.00,CLR,,0.00,WeatherDisplay:10.37,2013-03-29 11:41:00,
2013-03-29 06:46:00,14.7,6.7,30.20,ENE,73,0.0,0.0,70,0.00,CLR,,0.00,WeatherDisplay:10.37,2013-03-29 11:46:00,
2013-03-29 06:51:00,14.7,6.7,30.20,ENE,73,0.0,0.0,70,0.00,CLR,,0.00,WeatherDisplay:10.37,2013-03-29 11:51:00,
2013-03-29 06:56:00,14.9,6.9,30.20,ENE,73,0.0,0.0,70,0.00,CLR,,0.00,WeatherDisplay:10.37,2013-03-29 11:56:00,
2013-03-29 07:01:00,14.9,7.2,30.20,ENE,73,0.0,0.0,71,0.00,CLR,,0.00,WeatherDisplay:10.37,2013-03-29 12:01:00,
2013-03-29 07:06:00,15.1,7.4,30.20,ENE,73,0.0,0.0,71,0.00,CLR,,0.00,WeatherDisplay:10.37,2013-03-29 12:06:00,
2013-03-29 07:12:00,15.1,7.4,30.20,ENE,73,0.0,0.0,71,0.00,CLR,,0.00,WeatherDisplay:10.37,2013-03-29 12:12:00,
2013-03-29 07:17:00,15.3,7.5,30.20,ENE,73,0.0,0.0,71,0.00,CLR,,0.00,WeatherDisplay:10.37,2013-03-29 12:17:00,
2013-03-29 07:22:00,15.4,7.7,30.20,ENE,73,0.0,0.0,71,0.00,CLR,,0.00,WeatherDisplay:10.37,2013-03-29 12:22:00,
2013-03-29 07:27:00,15.8,8.4,30.20,ENE,73,0.0,0.0,72,0.00,CLR,,0.00,WeatherDisplay:10.37,2013-03-29 12:27:00,
2013-03-29 07:32:00,16.2,8.7,30.20,ENE,73,0.0,0.0,72,0.00,CLR,,0.00,WeatherDisplay:10.37,2013-03-29 12:32:00,
2013-03-29 07:37:00,16.9,9.4,30.20,ENE,73,0.0,0.0,72,0.00,CLR,,0.00,WeatherDisplay:10.37,2013-03-29 12:37:00,
2013-03-29 07:42:00,17.8,10.3,30.20,ENE,73,0.0,0.0,72,0.00,CLR,,0.00,WeatherDisplay:10.37,2013-03-29 12:42:00,
2013-03-29 07:47:00,18.5,11.3,30.20,ENE,73,0.0,0.0,73,0.00,CLR,,0.00,WeatherDisplay:10.37,2013-03-29 12:47:00,
2013-03-29 07:52:00,19.4,12.2,30.20,ENE,73,0.0,0.0,73,0.00,CLR,,0.00,WeatherDisplay:10.37,2013-03-29 12:52:00,
2013-03-29 07:57:00,20.3,13.0,30.20,ENE,73,0.0,0.0,73,0.00,CLR,,0.00,WeatherDisplay:10.37,2013-03-29 12:57:00,
2013-03-29 08:02:00,21.4,14.1,30.20,ENE,73,0.0,0.0,73,0.00,CLR,,0.00,WeatherDisplay:10.37,2013-03-29 13:02:00,
2013-03-29 08:08:00,22.6,15.3,30.20,ENE,73,0.0,0.0,73,0.00,CLR,,0.00,WeatherDisplay:10.37,2013-03-29 13:08:00,
2013-03-29 08:13:00,23.7,16.3,30.20,ENE,73,0.0,0.0,73,0.00,CLR,,0.00,WeatherDisplay:10.37,2013-03-29 13:13:00,
2013-03-29 08:18:00,25.3,17.6,30.20,ENE,73,0.0,0.0,72,0.00,CLR,,0.00,WeatherDisplay:10.37,2013-03-29 13:18:00,
2013-03-29 08:23:00,26.1,17.9,30.20,ENE,73,0.0,0.0,71,0.00,CLR,,0.00,WeatherDisplay:10.37,2013-03-29 13:23:00,
2013-03-29 08:28:00,26.4,17.6,30.20,ENE,73,0.0,0.0,69,0.00,CLR,,0.00,WeatherDisplay:10.37,2013-03-29 13:28:00,
2013-03-29 08:34:00,26.6,16.8,30.20,ENE,73,0.0,0.0,66,0.00,CLR,,0.00,WeatherDisplay:10.37,2013-03-29 13:34:00,
2013-03-29 08:39:00,26.8,16.2,30.20,ENE,73,0.0,0.0,64,0.00,CLR,,0.00,WeatherDisplay:10.37,2013-03-29 13:39:00,
2013-03-29 08:44:00,27.3,16.0,30.20,ENE,73,0.0,0.0,62,0.00,CLR,,0.00,WeatherDisplay:10.37,2013-03-29 13:44:00,
2013-03-29 08:49:00,29.5,17.7,30.20,ENE,73,0.0,0.0,61,0.00,CLR,,0.00,WeatherDisplay:10.37,2013-03-29 13:49:00,
2013-03-29 08:55:00,32.2,19.0,30.20,NE,50,0.0,0.0,58,0.00,CLR,,0.00,WeatherDisplay:10.37,2013-03-29 13:55:00,
2013-03-29 09:00:00,32.9,18.1,30.20,NNW,344,0.0,0.0,54,0.00,CLR,,0.00,WeatherDisplay:10.37,2013-03-29 14:00:00,
2013-03-29 09:05:00,33.1,17.8,30.20,NNW,341,0.0,0.0,53,0.00,CLR,,0.00,WeatherDisplay:10.37,2013-03-29 14:05:00,
2013-03-29 09:10:00,33.6,18.3,30.20,NNW,339,0.0,0.0,53,0.00,CLR,,0.00,WeatherDisplay:10.37,2013-03-29 14:10:00,
2013-03-29 09:16:00,34.7,18.4,30.20,East,82,0.0,0.0,51,0.00,CLR,,0.00,WeatherDisplay:10.37,2013-03-29 14:16:00,
2013-03-29 09:21:00,35.1,18.7,30.20,ENE,61,0.0,0.0,51,0.00,CLR,,0.00,WeatherDisplay:10.37,2013-03-29 14:21:00,
2013-03-29 09:27:00,35.1,18.7,30.20,ENE,61,0.0,0.0,51,0.00,CLR,,0.00,WeatherDisplay:10.37,2013-03-29 14:27:00,
2013-03-29 09:32:00,35.4,19.1,30.20,NE,53,0.0,0.0,51,0.00,CLR,,0.00,WeatherDisplay:10.37,2013-03-29 14:32:00,
2013-03-29 09:37:00,36.0,19.1,30.20,NE,47,0.0,0.0,50,0.00,CLR,,0.00,WeatherDisplay:10.37,2013-03-29 14:37:00,
2013-03-29 09:43:00,36.9,19.9,30.20,NE,47,0.0,0.0,50,0.00,CLR,,0.00,WeatherDisplay:10.37,2013-03-29 14:43:00,
2013-03-29 09:48:00,38.3,20.8,30.20,East,96,0.0,0.0,49,0.00,CLR,,0.00,WeatherDisplay:10.37,2013-03-29 14:48:00,
2013-03-29 09:53:00,39.0,21.5,30.20,ESE,106,0.0,0.0,49,0.00,CLR,,0.00,WeatherDisplay:10.37,2013-03-29 14:53:00,
2013-03-29 09:58:00,39.7,22.1,30.20,SE,129,3.5,3.5,49,0.00,CLR,,0.00,WeatherDisplay:10.37,2013-03-29 14:58:00,
2013-03-29 10:03:00,40.3,22.1,30.20,SE,133,3.5,3.5,48,0.00,CLR,,0.00,WeatherDisplay:10.37,2013-03-29 15:03:00,
2013-03-29 10:08:00,40.8,22.6,30.20,ESE,121,3.5,0.0,48,0.00,CLR,,0.00,WeatherDisplay:10.37,2013-03-29 15:08:00,
2013-03-29 10:13:00,41.4,23.1,30.20,SSE,156,3.5,3.5,48,0.00,CLR,,0.00,WeatherDisplay:10.37,2013-03-29 15:13:00,
2013-03-29 10:19:00,42.4,24.1,30.20,SE,130,2.3,0.0,48,0.00,CLR,,0.00,WeatherDisplay:10.37,2013-03-29 15:19:00,
2013-03-29 10:24:00,43.5,23.6,30.20,SE,146,3.5,3.5,45,0.00,CLR,,0.00,WeatherDisplay:10.37,2013-03-29 15:24:00,
2013-03-29 10:29:00,44.8,24.7,30.20,SE,126,2.3,0.0,45,0.00,CLR,,0.00,WeatherDisplay:10.37,2013-03-29 15:29:00,
2013-03-29 10:35:00,45.3,25.2,30.20,East,85,3.5,3.5,45,0.00,CLR,,0.00,WeatherDisplay:10.37,2013-03-29 15:35:00,
2013-03-29 10:40:00,45.9,25.7,30.20,SW,216,2.3,0.0,45,0.00,CLR,,0.00,WeatherDisplay:10.37,2013-03-29 15:40:00,
2013-03-29 10:45:00,46.6,25.8,30.20,SE,137,0.0,0.0,44,0.00,CLR,,0.00,WeatherDisplay:10.37,2013-03-29 15:45:00,
2013-03-29 10:50:00,46.6,25.8,30.20,ESE,112,5.8,5.8,44,0.00,CLR,,0.00,WeatherDisplay:10.37,2013-03-29 15:50:00,
2013-03-29 10:55:00,46.9,25.0,30.20,SE,134,3.5,3.6,42,0.00,CLR,,0.00,WeatherDisplay:10.37,2013-03-29 15:55:00,
2013-03-29 11:00:00,47.1,25.2,30.20,South,177,0.0,0.0,42,0.00,CLR,,0.00,WeatherDisplay:10.37,2013-03-29 16:00:00,
2013-03-29 11:05:00,47.7,25.7,30.20,South,184,3.5,3.5,42,0.00,CLR,,0.00,WeatherDisplay:10.37,2013-03-29 16:05:00,
2013-03-29 11:11:00,47.5,25.5,30.20,SSW,207,5.8,5.8,42,0.00,CLR,,0.00,WeatherDisplay:10.37,2013-03-29 16:11:00,
2013-03-29 11:16:00,47.5,25.5,30.20,South,176,5.8,5.8,42,0.00,CLR,,0.00,WeatherDisplay:10.37,2013-03-29 16:16:00,
2013-03-29 11:21:00,47.3,25.3,30.20,SSW,195,5.8,5.8,42,0.00,CLR,,0.00,WeatherDisplay:10.37,2013-03-29 16:21:00,
2013-03-29 11:26:00,47.3,25.3,30.20,SSE,153,0.0,0.0,42,0.00,CLR,,0.00,WeatherDisplay:10.37,2013-03-29 16:26:00,
2013-03-29 11:31:00,47.7,25.7,30.20,SW,217,5.8,5.8,42,0.00,CLR,,0.00,WeatherDisplay:10.37,2013-03-29 16:31:00,
2013-03-29 11:37:00,46.9,25.0,30.20,SSW,206,5.8,5.8,42,0.00,CLR,,0.00,WeatherDisplay:10.37,2013-03-29 16:37:00,
2013-03-29 11:42:00,46.9,25.0,30.20,WSW,238,3.5,4.0,42,0.00,CLR,,0.00,WeatherDisplay:10.37,2013-03-29 16:42:00,
2013-03-29 11:47:00,46.8,24.9,30.20,SSW,207,5.8,5.8,42,0.00,CLR,,0.00,WeatherDisplay:10.37,2013-03-29 16:47:00,
2013-03-29 11:52:00,47.1,25.2,30.20,South,177,3.5,3.5,42,0.00,CLR,,0.00,WeatherDisplay:10.37,2013-03-29 16:52:00,
2013-03-29 11:58:00,47.7,25.7,30.20,ESE,122,3.5,3.5,42,0.00,CLR,,0.00,WeatherDisplay:10.37,2013-03-29 16:58:00,
2013-03-29 12:03:00,47.5,25.5,30.20,SW,216,6.3,6.3,42,0.00,CLR,,0.00,WeatherDisplay:10.37,2013-03-29 17:03:00,
2013-03-29 12:08:00,47.3,25.3,30.20,SW,229,5.8,5.8,42,0.00,CLR,,0.00,WeatherDisplay:10.37,2013-03-29 17:08:00,
2013-03-29 12:13:00,46.9,25.0,30.20,South,179,5.8,5.8,42,0.00,CLR,,0.00,WeatherDisplay:10.37,2013-03-29 17:13:00,
2013-03-29 12:18:00,47.1,25.2,30.17,South,178,5.8,5.8,42,0.00,CLR,,0.00,WeatherDisplay:10.37,2013-03-29 17:18:00,
2013-03-29 12:23:00,47.3,25.3,30.17,SE,141,4.6,4.6,42,0.00,CLR,,0.00,WeatherDisplay:10.37,2013-03-29 17:23:00,
2013-03-29 12:28:00,48.0,26.0,30.17,SSW,204,4.6,4.6,42,0.00,CLR,,0.00,WeatherDisplay:10.37,2013-03-29 17:28:00,
2013-03-29 12:33:00,49.3,26.5,30.17,SSW,213,3.5,3.5,41,0.00,CLR,,0.00,WeatherDisplay:10.37,2013-03-29 17:33:00,
2013-03-29 12:38:00,49.6,26.9,30.17,WSW,242,5.8,5.8,41,0.00,CLR,,0.00,WeatherDisplay:10.37,2013-03-29 17:38:00,
2013-03-29 12:44:00,48.7,26.1,30.17,SSE,151,5.8,5.8,41,0.00,CLR,,0.00,WeatherDisplay:10.37,2013-03-29 17:44:00,
2013-03-29 12:49:00,48.0,26.0,30.17,SSW,207,5.8,5.8,42,0.00,CLR,,0.00,WeatherDisplay:10.37,2013-03-29 17:49:00,
2013-03-29 12:54:00,47.8,25.8,30.17,SW,220,9.2,9.2,42,0.00,CLR,,0.00,WeatherDisplay:10.37,2013-03-29 17:54:00,
2013-03-29 12:59:00,47.1,25.2,30.17,SSW,209,9.2,9.2,42,0.00,CLR,,0.00,WeatherDisplay:10.37,2013-03-29 17:59:00,
2013-03-29 13:04:00,46.4,24.5,30.17,WSW,241,8.1,8.1,42,0.00,CLR,,0.00,WeatherDisplay:10.37,2013-03-29 18:04:00,
2013-03-29 13:10:00,46.6,24.7,30.17,SSW,210,6.9,6.9,42,0.00,CLR,,0.00,WeatherDisplay:10.37,2013-03-29 18:10:00,
2013-03-29 13:15:00,46.4,24.5,30.17,South,178,5.8,5.8,42,0.00,CLR,,0.00,WeatherDisplay:10.37,2013-03-29 18:15:00,
2013-03-29 13:20:00,46.4,24.5,30.17,SSE,155,3.5,3.5,42,0.00,CLR,,0.00,WeatherDisplay:10.37,2013-03-29 18:20:00,
2013-03-29 13:25:00,46.4,24.5,30.17,SSW,197,3.5,3.5,42,0.00,CLR,,0.00,WeatherDisplay:10.37,2013-03-29 18:25:00,
2013-03-29 13:30:00,46.4,24.5,30.17,SSE,168,8.1,8.1,42,0.00,CLR,,0.00,WeatherDisplay:10.37,2013-03-29 18:30:00,
2013-03-29 13:35:00,46.2,24.4,30.17,West,269,8.1,8.1,42,0.00,CLR,,0.00,WeatherDisplay:10.37,2013-03-29 18:35:00,
2013-03-29 13:40:00,46.2,24.4,30.17,SSE,153,3.5,3.5,42,0.00,CLR,,0.00,WeatherDisplay:10.37,2013-03-29 18:40:00,
2013-03-29 13:46:00,46.6,24.7,30.17,SSW,211,5.8,5.8,42,0.00,CLR,,0.00,WeatherDisplay:10.37,2013-03-29 18:46:00,
2013-03-29 13:51:00,46.9,25.0,30.17,SW,226,5.8,5.8,42,0.00,CLR,,0.00,WeatherDisplay:10.37,2013-03-29 18:51:00,
2013-03-29 13:57:00,46.8,24.9,30.17,SSW,195,5.8,5.8,42,0.00,CLR,,0.00,WeatherDisplay:10.37,2013-03-29 18:57:00,
2013-03-29 14:02:00,46.4,24.5,30.17,SW,218,6.3,6.3,42,0.00,CLR,,0.00,WeatherDisplay:10.37,2013-03-29 19:02:00,
2013-03-29 14:07:00,46.2,24.4,30.17,SW,224,5.8,5.8,42,0.00,CLR,,0.00,WeatherDisplay:10.37,2013-03-29 19:07:00,
2013-03-29 14:13:00,46.4,24.5,30.17,SW,224,8.1,8.1,42,0.00,CLR,,0.00,WeatherDisplay:10.37,2013-03-29 19:13:00,
2013-03-29 14:18:00,46.6,24.7,30.17,South,172,5.8,5.8,42,0.00,CLR,,0.00,WeatherDisplay:10.37,2013-03-29 19:18:00,
2013-03-29 14:23:00,46.8,24.9,30.17,SSW,207,4.6,4.6,42,0.00,CLR,,0.00,WeatherDisplay:10.37,2013-03-29 19:23:00,
2013-03-29 14:28:00,47.5,25.5,30.17,SSW,194,5.8,5.8,42,0.00,CLR,,0.00,WeatherDisplay:10.37,2013-03-29 19:28:00,
2013-03-29 14:33:00,48.0,26.0,30.17,SW,223,5.8,5.8,42,0.00,CLR,,0.00,WeatherDisplay:10.37,2013-03-29 19:33:00,
2013-03-29 14:39:00,47.3,25.3,30.17,SSE,163,4.9,4.9,42,0.00,CLR,,0.00,WeatherDisplay:10.37,2013-03-29 19:39:00,
2013-03-29 14:44:00,47.1,25.2,30.17,SSW,207,5.8,5.8,42,0.00,CLR,,0.00,WeatherDisplay:10.37,2013-03-29 19:44:00,
2013-03-29 14:49:00,46.9,25.0,30.15,SSW,203,5.8,5.8,42,0.00,CLR,,0.00,WeatherDisplay:10.37,2013-03-29 19:49:00,
2013-03-29 14:54:00,47.3,25.3,30.15,SSW,210,5.8,5.8,42,0.00,CLR,,0.00,WeatherDisplay:10.37,2013-03-29 19:54:00,
2013-03-29 14:59:00,47.8,25.8,30.15,SSW,193,8.1,8.1,42,0.00,CLR,,0.00,WeatherDisplay:10.37,2013-03-29 19:59:00,
2013-03-29 15:04:00,48.0,26.0,30.15,SW,236,9.2,9.2,42,0.00,CLR,,0.00,WeatherDisplay:10.37,2013-03-29 20:04:00,
2013-03-29 15:10:00,47.8,25.8,30.15,SSW,203,4.6,4.6,42,0.00,CLR,,0.00,WeatherDisplay:10.37,2013-03-29 20:10:00,
2013-03-29 15:15:00,48.0,26.0,30.15,SW,227,3.5,3.5,42,0.00,CLR,,0.00,WeatherDisplay:10.37,2013-03-29 20:15:00,
2013-03-29 15:20:00,48.2,25.6,30.15,SW,230,9.2,9.2,41,0.00,CLR,,0.00,WeatherDisplay:10.37,2013-03-29 20:20:00,
2013-03-29 15:26:00,47.8,25.8,30.15,SSW,201,4.6,4.6,42,0.00,CLR,,0.00,WeatherDisplay:10.37,2013-03-29 20:26:00,
2013-03-29 15:31:00,48.0,26.0,30.15,SW,219,9.2,9.2,42,0.00,CLR,,0.00,WeatherDisplay:10.37,2013-03-29 20:31:00,
2013-03-29 15:36:00,47.7,25.7,30.15,WSW,253,10.4,10.4,42,0.00,CLR,,0.00,WeatherDisplay:10.37,2013-03-29 20:36:00,
2013-03-29 15:41:00,47.3,25.3,30.15,ESE,110,5.8,5.8,42,0.00,CLR,,0.00,WeatherDisplay:10.37,2013-03-29 20:41:00,
2013-03-29 15:46:00,47.3,25.3,30.15,WSW,240,5.8,5.8,42,0.00,CLR,,0.00,WeatherDisplay:10.37,2013-03-29 20:46:00,
2013-03-29 15:51:00,47.3,25.3,30.15,SW,215,6.9,6.9,42,0.00,CLR,,0.00,WeatherDisplay:10.37,2013-03-29 20:51:00,
2013-03-29 15:56:00,46.6,24.7,30.15,SSW,212,8.1,8.1,42,0.00,CLR,,0.00,WeatherDisplay:10.37,2013-03-29 20:56:00,
2013-03-29 16:01:00,46.2,24.4,30.15,SW,227,8.1,8.1,42,0.00,CLR,,0.00,WeatherDisplay:10.37,2013-03-29 21:01:00,
2013-03-29 16:06:00,46.2,24.4,30.15,SSW,207,4.6,4.6,42,0.00,CLR,,0.00,WeatherDisplay:10.37,2013-03-29 21:06:00,
2013-03-29 16:12:00,46.2,24.4,30.15,SSW,195,5.8,5.8,42,0.00,CLR,,0.00,WeatherDisplay:10.37,2013-03-29 21:12:00,
2013-03-29 16:17:00,46.2,24.4,30.15,SSE,166,8.1,8.1,42,0.00,CLR,,0.00,WeatherDisplay:10.37,2013-03-29 21:17:00,
2013-03-29 16:22:00,46.0,24.2,30.15,SSW,212,4.6,4.6,42,0.00,CLR,,0.00,WeatherDisplay:10.37,2013-03-29 21:22:00,
2013-03-29 16:27:00,46.0,24.2,30.15,South,189,8.1,8.1,42,0.00,CLR,,0.00,WeatherDisplay:10.37,2013-03-29 21:27:00,
2013-03-29 16:32:00,46.0,24.2,30.15,SSE,150,5.8,5.8,42,0.00,CLR,,0.00,WeatherDisplay:10.37,2013-03-29 21:32:00,
2013-03-29 16:37:00,46.0,24.2,30.15,SSW,202,4.6,4.6,42,0.00,CLR,,0.00,WeatherDisplay:10.37,2013-03-29 21:37:00,
2013-03-29 16:42:00,46.0,24.2,30.15,South,185,3.5,3.5,42,0.00,CLR,,0.00,WeatherDisplay:10.37,2013-03-29 21:42:00,
2013-03-29 16:47:00,45.9,24.0,30.15,SSW,206,5.8,5.8,42,0.00,CLR,,0.00,WeatherDisplay:10.37,2013-03-29 21:47:00,
2013-03-29 16:53:00,45.9,24.0,30.15,South,190,3.5,0.0,42,0.00,CLR,,0.00,WeatherDisplay:10.37,2013-03-29 21:53:00,
2013-03-29 16:58:00,45.9,24.0,30.15,SW,225,5.8,5.8,42,0.00,CLR,,0.00,WeatherDisplay:10.37,2013-03-29 21:58:00,
2013-03-29 17:03:00,45.3,23.5,30.12,SSW,192,9.2,9.2,42,0.00,CLR,,0.00,WeatherDisplay:10.37,2013-03-29 22:03:00,
2013-03-29 17:08:00,45.1,23.4,30.12,SSW,212,5.8,5.8,42,0.00,CLR,,0.00,WeatherDisplay:10.37,2013-03-29 22:08:00,
2013-03-29 17:13:00,45.0,23.2,30.12,South,181,5.8,5.8,42,0.00,CLR,,0.00,WeatherDisplay:10.37,2013-03-29 22:13:00,
2013-03-29 17:18:00,45.1,23.4,30.12,SSW,212,3.5,3.5,42,0.00,CLR,,0.00,WeatherDisplay:10.37,2013-03-29 22:18:00,
2013-03-29 17:24:00,45.1,23.4,30.12,SE,136,3.5,3.5,42,0.00,CLR,,0.00,WeatherDisplay:10.37,2013-03-29 22:24:00,
2013-03-29 17:29:00,45.0,23.2,30.12,SW,217,3.6,3.6,42,0.00,CLR,,0.00,WeatherDisplay:10.37,2013-03-29 22:29:00,
2013-03-29 17:34:00,44.6,22.9,30.12,SSE,160,3.6,0.0,42,0.00,CLR,,0.00,WeatherDisplay:10.37,2013-03-29 22:34:00,
2013-03-29 17:39:00,44.4,23.3,30.12,South,184,3.5,3.5,43,0.00,CLR,,0.00,WeatherDisplay:10.37,2013-03-29 22:39:00,
2013-03-29 17:44:00,44.2,23.1,30.12,SSW,202,3.5,3.5,43,0.00,CLR,,0.00,WeatherDisplay:10.37,2013-03-29 22:44:00,
2013-03-29 17:49:00,44.1,23.0,30.12,South,179,3.5,3.5,43,0.00,CLR,,0.00,WeatherDisplay:10.37,2013-03-29 22:49:00,
2013-03-29 17:54:00,44.1,23.0,30.12,South,189,3.5,0.0,43,0.00,CLR,,0.00,WeatherDisplay:10.37,2013-03-29 22:54:00,
2013-03-29 18:00:00,43.9,22.8,30.12,SSW,212,4.0,4.0,43,0.00,CLR,,0.00,WeatherDisplay:10.37,2013-03-29 23:00:00,
2013-03-29 18:05:00,43.7,22.6,30.12,SW,225,3.5,3.5,43,0.00,CLR,,0.00,WeatherDisplay:10.37,2013-03-29 23:05:00,
2013-03-29 18:10:00,43.5,22.5,30.12,SW,219,3.5,3.5,43,0.00,CLR,,0.00,WeatherDisplay:10.37,2013-03-29 23:10:00,
2013-03-29 18:15:00,43.5,22.5,30.12,SSW,203,0.0,0.0,43,0.00,CLR,,0.00,WeatherDisplay:10.37,2013-03-29 23:15:00,
2013-03-29 18:20:00,43.3,22.3,30.12,SSW,197,0.0,0.0,43,0.00,CLR,,0.00,WeatherDisplay:10.37,2013-03-29 23:20:00,
2013-03-29 18:25:00,43.3,22.3,30.12,SSE,162,0.0,0.0,43,0.00,CLR,,0.00,WeatherDisplay:10.37,2013-03-29 23:25:00,
2013-03-29 18:31:00,43.3,22.3,30.12,SSW,195,2.3,0.0,43,0.00,CLR,,0.00,WeatherDisplay:10.37,2013-03-29 23:31:00,
2013-03-29 18:36:00,43.3,22.3,30.12,South,176,0.0,0.0,43,0.00,CLR,,0.00,WeatherDisplay:10.37,2013-03-29 23:36:00,
2013-03-29 18:41:00,43.2,22.1,30.12,SSW,199,0.0,0.0,43,0.00,CLR,,0.00,WeatherDisplay:10.37,2013-03-29 23:41:00,
2013-03-29 18:46:00,42.8,21.8,30.12,SSW,195,0.0,0.0,43,0.00,CLR,,0.00,WeatherDisplay:10.37,2013-03-29 23:46:00,
2013-03-29 18:51:00,42.4,21.5,30.12,SSW,195,0.0,0.0,43,0.00,CLR,,0.00,WeatherDisplay:10.37,2013-03-29 23:51:00,
2013-03-29 18:56:00,42.1,21.2,30.12,SSW,195,0.0,0.0,43,0.00,CLR,,0.00,WeatherDisplay:10.37,2013-03-29 23:56:00,
2013-03-29 19:01:00,41.5,20.7,30.12,SSW,195,0.0,0.0,43,0.00,CLR,,0.00,WeatherDisplay:10.37,2013-03-30 00:01:00,
2013-03-29 19:06:00,41.2,20.3,30.12,SSW,195,0.0,0.0,43,0.00,CLR,,0.00,WeatherDisplay:10.37,2013-03-30 00:06:00,
2013-03-29 19:12:00,40.5,19.7,30.12,SSE,149,0.0,0.0,43,0.00,CLR,,0.00,WeatherDisplay:10.37,2013-03-30 00:12:00,
2013-03-29 19:17:00,40.1,19.4,30.09,SSE,162,2.3,0.0,43,0.00,CLR,,0.00,WeatherDisplay:10.37,2013-03-30 00:17:00,
2013-03-29 19:22:00,39.9,19.2,30.09,SSE,155,0.0,0.0,43,0.00,CLR,,0.00,WeatherDisplay:10.37,2013-03-30 00:22:00,
2013-03-29 19:27:00,39.6,18.9,30.09,SE,145,0.0,0.0,43,0.00,CLR,,0.00,WeatherDisplay:10.37,2013-03-30 00:27:00,
2013-03-29 19:32:00,39.4,18.7,30.09,SE,136,0.0,0.0,43,0.00,CLR,,0.00,WeatherDisplay:10.37,2013-03-30 00:32:00,
2013-03-29 19:37:00,39.0,18.9,30.09,SE,146,0.0,0.0,44,0.00,CLR,,0.00,WeatherDisplay:10.37,2013-03-30 00:37:00,
2013-03-29 19:42:00,38.8,18.8,30.09,SSE,150,0.0,0.0,44,0.00,CLR,,0.00,WeatherDisplay:10.37,2013-03-30 00:42:00,
2013-03-29 19:47:00,38.5,18.4,30.09,SSE,150,0.0,0.0,44,0.00,CLR,,0.00,WeatherDisplay:10.37,2013-03-30 00:47:00,
2013-03-29 19:53:00,37.9,17.9,30.09,SSE,150,0.0,0.0,44,0.00,CLR,,0.00,WeatherDisplay:10.37,2013-03-30 00:53:00,
2013-03-29 19:58:00,37.6,17.6,30.09,SE,125,0.0,0.0,44,0.00,CLR,,0.00,WeatherDisplay:10.37,2013-03-30 00:58:00,
2013-03-29 20:03:00,37.2,17.3,30.09,SE,125,0.0,0.0,44,0.00,CLR,,0.00,WeatherDisplay:10.37,2013-03-30 01:03:00,
2013-03-29 20:08:00,36.7,18.3,30.09,SSE,155,0.0,0.0,47,0.00,CLR,,0.00,WeatherDisplay:10.37,2013-03-30 01:08:00,
2013-03-29 20:13:00,36.1,17.8,30.09,SSE,156,0.0,0.0,47,0.00,CLR,,0.00,WeatherDisplay:10.37,2013-03-30 01:13:00,
2013-03-29 20:18:00,35.6,17.3,30.09,SSE,156,0.0,0.0,47,0.00,CLR,,0.00,WeatherDisplay:10.37,2013-03-30 01:18:00,
2013-03-29 20:23:00,35.2,17.0,30.09,SE,146,0.0,0.0,47,0.00,CLR,,0.00,WeatherDisplay:10.37,2013-03-30 01:23:00,
2013-03-29 20:28:00,34.9,18.1,30.09,SSE,153,0.0,0.0,50,0.00,CLR,,0.00,WeatherDisplay:10.37,2013-03-30 01:28:00,
2013-03-29 20:33:00,34.7,17.9,30.09,SE,139,0.0,0.0,50,0.00,CLR,,0.00,WeatherDisplay:10.37,2013-03-30 01:33:00,
2013-03-29 20:38:00,34.5,17.8,30.09,SE,139,0.0,0.0,50,0.00,CLR,,0.00,WeatherDisplay:10.37,2013-03-30 01:38:00,
2013-03-29 20:43:00,34.3,17.6,30.09,SE,125,0.0,0.0,50,0.00,CLR,,0.00,WeatherDisplay:10.37,2013-03-30 01:43:00,
2013-03-29 20:49:00,34.2,17.4,30.09,SE,125,0.0,0.0,50,0.00,CLR,,0.00,WeatherDisplay:10.37,2013-03-30 01:49:00,
2013-03-29 20:54:00,34.0,17.3,30.09,SE,125,0.0,0.0,50,0.00,CLR,,0.00,WeatherDisplay:10.37,2013-03-30 01:54:00,
2013-03-29 20:59:00,33.6,17.4,30.09,SE,125,0.0,0.0,51,0.00,CLR,,0.00,WeatherDisplay:10.37,2013-03-30 01:59:00,
2013-03-29 21:04:00,33.3,17.1,30.09,ESE,110,0.0,0.0,51,0.00,CLR,,0.00,WeatherDisplay:10.37,2013-03-30 02:04:00,
2013-03-29 21:09:00,33.1,16.9,30.09,ESE,110,0.0,0.0,51,0.00,CLR,,0.00,WeatherDisplay:10.37,2013-03-30 02:09:00,
2013-03-29 21:15:00,32.7,16.6,30.09,ESE,110,0.0,0.0,51,0.00,CLR,,0.00,WeatherDisplay:10.37,2013-03-30 02:15:00,
2013-03-29 21:20:00,32.5,16.8,30.09,ESE,119,0.0,0.0,52,0.00,CLR,,0.00,WeatherDisplay:10.37,2013-03-30 02:20:00,
2013-03-29 21:25:00,32.4,16.7,30.09,SE,131,3.5,0.0,52,0.00,CLR,,0.00,WeatherDisplay:10.37,2013-03-30 02:25:00,
2013-03-29 21:30:00,32.5,16.8,30.09,SSE,152,0.0,0.0,52,0.00,CLR,,0.00,WeatherDisplay:10.37,2013-03-30 02:30:00,
2013-03-29 21:35:00,33.1,17.3,30.09,SE,124,0.0,0.0,52,0.00,CLR,,0.00,WeatherDisplay:10.37,2013-03-30 02:35:00,
2013-03-29 21:41:00,33.6,17.8,30.09,SE,130,0.0,0.0,52,0.00,CLR,,0.00,WeatherDisplay:10.37,2013-03-30 02:41:00,
2013-03-29 21:47:00,33.8,18.0,30.09,SE,134,0.0,0.0,52,0.00,CLR,,0.00,WeatherDisplay:10.37,2013-03-30 02:47:00,
2013-03-29 21:52:00,34.2,17.9,30.09,SE,130,3.5,0.0,51,0.00,CLR,,0.00,WeatherDisplay:10.37,2013-03-30 02:52:00,
2013-03-29 21:57:00,34.3,18.1,30.09,SE,140,3.6,0.0,51,0.00,CLR,,0.00,WeatherDisplay:10.37,2013-03-30 02:57:00,
2013-03-29 22:02:00,34.7,18.4,30.09,SSE,149,3.5,3.5,51,0.00,CLR,,0.00,WeatherDisplay:10.37,2013-03-30 03:02:00,
2013-03-29 22:07:00,34.9,18.6,30.09,SE,142,0.0,0.0,51,0.00,CLR,,0.00,WeatherDisplay:10.37,2013-03-30 03:07:00,
2013-03-29 22:13:00,34.7,18.4,30.09,SE,145,0.0,0.0,51,0.00,CLR,,0.00,WeatherDisplay:10.37,2013-03-30 03:13:00,
2013-03-29 22:18:00,34.3,18.1,30.09,SE,145,0.0,0.0,51,0.00,CLR,,0.00,WeatherDisplay:10.37,2013-03-30 03:18:00,
2013-03-29 22:23:00,34.2,17.9,30.09,SE,140,0.0,0.0,51,0.00,CLR,,0.00,WeatherDisplay:10.37,2013-03-30 03:23:00,
2013-03-29 22:28:00,34.0,18.2,30.09,SE,140,0.0,0.0,52,0.00,CLR,,0.00,WeatherDisplay:10.37,2013-03-30 03:28:00,
2013-03-29 22:33:00,33.8,18.0,30.09,SE,140,0.0,0.0,52,0.00,CLR,,0.00,WeatherDisplay:10.37,2013-03-30 03:33:00,
2013-03-29 22:38:00,33.4,17.7,30.09,SE,140,0.0,0.0,52,0.00,CLR,,0.00,WeatherDisplay:10.37,2013-03-30 03:38:00,
2013-03-29 22:43:00,33.3,17.5,30.09,SE,140,0.0,0.0,52,0.00,CLR,,0.00,WeatherDisplay:10.37,2013-03-30 03:43:00,
2013-03-29 22:48:00,33.3,18.0,30.09,SE,140,0.0,0.0,53,0.00,CLR,,0.00,WeatherDisplay:10.37,2013-03-30 03:48:00,
2013-03-29 22:53:00,33.3,18.0,30.09,SE,137,0.0,0.0,53,0.00,CLR,,0.00,WeatherDisplay:10.37,2013-03-30 03:53:00,
2013-03-29 22:58:00,33.3,18.0,30.09,SE,145,0.0,0.0,53,0.00,CLR,,0.00,WeatherDisplay:10.37,2013-03-30 03:58:00,
2013-03-29 23:00:00,33.3,18.0,30.09,SE,145,0.0,0.0,53,0.00,CLR,,0.00,WeatherDisplay:10.37,2013-03-30 04:00:00,
2013-03-29 23:01:00,33.3,18.0,30.09,SE,146,0.0,0.0,53,0.00,CLR,,0.00,WeatherDisplay:10.37,2013-03-30 04:01:00,
2013-03-29 23:02:00,33.4,18.1,30.06,SE,145,0.0,0.0,53,0.00,CLR,,0.00,WeatherDisplay:10.37,2013-03-30 04:02:00,
2013-03-29 23:08:00,33.6,18.3,30.06,ESE,122,0.0,0.0,53,0.00,CLR,,0.00,WeatherDisplay:10.37,2013-03-30 04:08:00,
2013-03-29 23:13:00,33.8,18.5,30.06,SE,140,0.0,0.0,53,0.00,CLR,,0.00,WeatherDisplay:10.37,2013-03-30 04:13:00,
2013-03-29 23:18:00,34.0,18.6,30.06,SSE,155,0.0,0.0,53,0.00,CLR,,0.00,WeatherDisplay:10.37,2013-03-30 04:18:00,
2013-03-29 23:23:00,34.0,18.6,30.06,SSE,155,0.0,0.0,53,0.00,CLR,,0.00,WeatherDisplay:10.37,2013-03-30 04:23:00,
2013-03-29 23:28:00,33.8,18.5,30.06,SSE,155,0.0,0.0,53,0.00,CLR,,0.00,WeatherDisplay:10.37,2013-03-30 04:28:00,
2013-03-29 23:34:00,33.8,18.5,30.06,SE,135,0.0,0.0,53,0.00,CLR,,0.00,WeatherDisplay:10.37,2013-03-30 04:34:00,
2013-03-29 23:39:00,34.0,18.6,30.06,SE,134,0.0,0.0,53,0.00,CLR,,0.00,WeatherDisplay:10.37,2013-03-30 04:39:00,
2013-03-29 23:44:00,34.3,19.0,30.06,ESE,123,0.0,0.0,53,0.00,CLR,,0.00,WeatherDisplay:10.37,2013-03-30 04:44:00,
2013-03-29 23:49:00,34.5,19.1,30.06,ESE,116,0.0,0.0,53,0.00,CLR,,0.00,WeatherDisplay:10.37,2013-03-30 04:49:00,
2013-03-29 23:54:00,34.7,18.9,30.06,SE,139,0.0,0.0,52,0.00,CLR,,0.00,WeatherDisplay:10.37,2013-03-30 04:54:00,
2013-03-29 23:59:00,35.1,19.2,30.06,ESE,120,2.3,0.0,52,0.00,CLR,,0.00,WeatherDisplay:10.37,2013-03-30 04:59:00,